Terminal Aerodrome Forecast
Issued by NWS

Home | Current Version | Previous Version | Text Only | Print | Product List | Glossary On
Versions: 1 2 3 4 5 6 7 8 9 10 11 12 13 14 15 16 17 18 19 20 21 22 23 24 25 26 27 28 29 30 31 32 33 34 35 36 37 38 39 40
000
FTUS46 KPQR 290802 AAA
TAFONP
TAF AMD
KONP 290802Z 2908/3006 20015G25KT P6SM -RA SCT035 BKN060 OVC100
     FM291100 19022G35KT 4SM -RA BR SCT008 BKN020 OVC040
     FM291500 20029G43KT 6SM -RA SCT008 OVC020
     FM292200 19020G32KT 6SM -RA SCT008 OVC025
     FM300300 20012G18KT 6SM -RA BR OVC020=

USA.gov is the U.S. government's official web portal to all federal, state and local government web resources and services.